sensor_id;sensor_type;location;lat;lon;timestamp;temperature;humidity
16253;DHT22;8234;41.480;2.306;2023-01-01T00:04:41;10.50;99.90
16253;DHT22;8234;41.480;2.306;2023-01-01T00:14:45;10.90;99.90
16253;DHT22;8234;41.480;2.306;2023-01-01T00:24:51;10.60;99.90
16253;DHT22;8234;41.480;2.306;2023-01-01T00:34:54;10.30;99.90
16253;DHT22;8234;41.480;2.306;2023-01-01T00:44:59;10.60;99.90
16253;DHT22;8234;41.480;2.306;2023-01-01T00:55:03;10.80;99.90
16253;DHT22;8234;41.480;2.306;2023-01-01T01:05:09;10.50;99.90
16253;DHT22;8234;41.480;2.306;2023-01-01T01:15:13;10.10;99.90
16253;DHT22;8234;41.480;2.306;2023-01-01T01:25:19;10.30;99.90
16253;DHT22;8234;41.480;2.306;2023-01-01T01:35:23;10.30;99.90
16253;DHT22;8234;41.480;2.306;2023-01-01T01:55:55;10.50;99.90
16253;DHT22;8234;41.480;2.306;2023-01-01T02:06:01;10.30;99.90
16253;DHT22;8234;41.480;2.306;2023-01-01T02:16:08;10.30;99.90
16253;DHT22;8234;41.480;2.306;2023-01-01T02:26:35;10.30;99.90
16253;DHT22;8234;41.480;2.306;2023-01-01T02:36:45;9.90;99.90
16253;DHT22;8234;41.480;2.306;2023-01-01T02:46:50;9.50;99.90
16253;DHT22;8234;41.480;2.306;2023-01-01T02:57:00;9.60;99.90
16253;DHT22;8234;41.480;2.306;2023-01-01T03:07:16;9.60;99.90
16253;DHT22;8234;41.480;2.306;2023-01-01T03:17:31;9.30;99.90
16253;DHT22;8234;41.480;2.306;2023-01-01T03:27:40;9.30;99.90
16253;DHT22;8234;41.480;2.306;2023-01-01T03:37:48;9.40;99.90
16253;DHT22;8234;41.480;2.306;2023-01-01T03:47:53;9.30;99.90
16253;DHT22;8234;41.480;2.306;2023-01-01T03:58:01;9.20;99.90
16253;DHT22;8234;41.480;2.306;2023-01-01T04:08:06;9.20;99.90
16253;DHT22;8234;41.480;2.306;2023-01-01T04:18:12;9.20;99.90
16253;DHT22;8234;41.480;2.306;2023-01-01T04:38:40;9.20;99.90
16253;DHT22;8234;41.480;2.306;2023-01-01T04:48:44;9.20;99.90
16253;DHT22;8234;41.480;2.306;2023-01-01T04:58:49;9.00;99.90
16253;DHT22;8234;41.480;2.306;2023-01-01T05:08:54;9.10;99.90
16253;DHT22;8234;41.480;2.306;2023-01-01T05:18:59;9.10;99.90
16253;DHT22;8234;41.480;2.306;2023-01-01T05:29:04;9.10;99.90
16253;DHT22;8234;41.480;2.306;2023-01-01T05:39:18;8.70;99.90
16253;DHT22;8234;41.480;2.306;2023-01-01T05:49:21;9.00;99.90
16253;DHT22;8234;41.480;2.306;2023-01-01T05:59:27;9.10;99.90
16253;DHT22;8234;41.480;2.306;2023-01-01T06:09:30;9.00;99.90
16253;DHT22;8234;41.480;2.306;2023-01-01T06:19:35;9.00;99.90
16253;DHT22;8234;41.480;2.306;2023-01-01T06:29:39;9.00;99.90
16253;DHT22;8234;41.480;2.306;2023-01-01T06:39:44;9.10;99.90
16253;DHT22;8234;41.480;2.306;2023-01-01T06:49:48;9.00;99.90
16253;DHT22;8234;41.480;2.306;2023-01-01T06:59:53;9.20;99.90
16253;DHT22;8234;41.480;2.306;2023-01-01T07:09:57;9.30;99.90
16253;DHT22;8234;41.480;2.306;2023-01-01T07:20:03;9.30;99.90
16253;DHT22;8234;41.480;2.306;2023-01-01T07:30:08;9.20;99.90
16253;DHT22;8234;41.480;2.306;2023-01-01T07:40:30;9.20;99.90
16253;DHT22;8234;41.480;2.306;2023-01-01T07:50:34;9.50;99.90
16253;DHT22;8234;41.480;2.306;2023-01-01T08:00:44;9.50;99.90
16253;DHT22;8234;41.480;2.306;2023-01-01T08:10:49;9.50;99.90
16253;DHT22;8234;41.480;2.306;2023-01-01T08:20:54;9.60;99.90
16253;DHT22;8234;41.480;2.306;2023-01-01T08:30:58;9.90;99.90
16253;DHT22;8234;41.480;2.306;2023-01-01T08:51:26;10.60;99.90
16253;DHT22;8234;41.480;2.306;2023-01-01T09:01:31;11.10;99.90
16253;DHT22;8234;41.480;2.306;2023-01-01T09:11:35;11.60;99.90
16253;DHT22;8234;41.480;2.306;2023-01-01T09:21:40;12.20;99.90
16253;DHT22;8234;41.480;2.306;2023-01-01T09:31:44;12.60;99.90
16253;DHT22;8234;41.480;2.306;2023-01-01T16:02:16;16.40;99.90
16253;DHT22;8234;41.480;2.306;2023-01-01T16:12:23;15.80;99.90
16253;DHT22;8234;41.480;2.306;2023-01-01T16:22:28;15.40;99.90
16253;DHT22;8234;41.480;2.306;2023-01-01T16:32:38;14.40;99.90
16253;DHT22;8234;41.480;2.306;2023-01-01T16:42:43;14.20;99.90
16253;DHT22;8234;41.480;2.306;2023-01-01T16:52:47;13.40;99.90
16253;DHT22;8234;41.480;2.306;2023-01-01T17:02:52;12.70;99.90
16253;DHT22;8234;41.480;2.306;2023-01-01T17:12:57;12.40;99.90
16253;DHT22;8234;41.480;2.306;2023-01-01T17:23:04;11.90;99.90
16253;DHT22;8234;41.480;2.306;2023-01-01T17:33:08;11.70;99.90
16253;DHT22;8234;41.480;2.306;2023-01-01T17:43:13;11.10;99.90
16253;DHT22;8234;41.480;2.306;2023-01-01T17:53:17;10.80;99.90
16253;DHT22;8234;41.480;2.306;2023-01-01T18:03:22;10.70;99.90
16253;DHT22;8234;41.480;2.306;2023-01-01T18:13:27;10.60;99.90
16253;DHT22;8234;41.480;2.306;2023-01-01T18:23:33;10.50;99.90
16253;DHT22;8234;41.480;2.306;2023-01-01T18:33:37;10.40;99.90
16253;DHT22;8234;41.480;2.306;2023-01-01T18:43:42;10.10;99.90
16253;DHT22;8234;41.480;2.306;2023-01-01T18:53:46;10.10;99.90
16253;DHT22;8234;41.480;2.306;2023-01-01T19:03:56;10.00;99.90
16253;DHT22;8234;41.480;2.306;2023-01-01T19:14:07;9.90;99.90
16253;DHT22;8234;41.480;2.306;2023-01-01T19:24:22;10.00;99.90
16253;DHT22;8234;41.480;2.306;2023-01-01T19:34:27;10.10;99.90
16253;DHT22;8234;41.480;2.306;2023-01-01T19:44:32;10.20;99.90
16253;DHT22;8234;41.480;2.306;2023-01-01T19:54:36;10.10;99.90
16253;DHT22;8234;41.480;2.306;2023-01-01T20:04:41;10.00;99.90
16253;DHT22;8234;41.480;2.306;2023-01-01T20:14:45;10.00;99.90
16253;DHT22;8234;41.480;2.306;2023-01-01T20:24:50;9.90;99.90
16253;DHT22;8234;41.480;2.306;2023-01-01T20:34:54;9.80;99.90
16253;DHT22;8234;41.480;2.306;2023-01-01T20:44:59;9.80;99.90
16253;DHT22;8234;41.480;2.306;2023-01-01T20:55:03;9.70;99.90
16253;DHT22;8234;41.480;2.306;2023-01-01T21:05:09;9.60;99.90
16253;DHT22;8234;41.480;2.306;2023-01-01T21:15:14;9.80;99.90
16253;DHT22;8234;41.480;2.306;2023-01-01T21:25:22;9.50;99.90
16253;DHT22;8234;41.480;2.306;2023-01-01T21:35:47;9.50;99.90
16253;DHT22;8234;41.480;2.306;2023-01-01T21:45:53;9.80;99.90
16253;DHT22;8234;41.480;2.306;2023-01-01T21:56:00;9.60;99.90
16253;DHT22;8234;41.480;2.306;2023-01-01T22:06:11;9.70;99.90
16253;DHT22;8234;41.480;2.306;2023-01-01T22:16:22;9.50;99.90
16253;DHT22;8234;41.480;2.306;2023-01-01T22:26:48;9.50;99.90
16253;DHT22;8234;41.480;2.306;2023-01-01T22:36:52;9.20;99.90
16253;DHT22;8234;41.480;2.306;2023-01-01T22:46:57;9.10;99.90
16253;DHT22;8234;41.480;2.306;2023-01-01T22:57:02;9.20;99.90
16253;DHT22;8234;41.480;2.306;2023-01-01T23:07:07;9.00;99.90
16253;DHT22;8234;41.480;2.306;2023-01-01T23:17:16;8.90;99.90
16253;DHT22;8234;41.480;2.306;2023-01-01T23:27:21;8.80;99.90
16253;DHT22;8234;41.480;2.306;2023-01-01T23:37:26;8.90;99.90
16253;DHT22;8234;41.480;2.306;2023-01-01T23:47:31;9.00;99.90
16253;DHT22;8234;41.480;2.306;2023-01-01T23:57:35;9.00;99.90
